Time;durP1;ratioP1;P1;durP2;ratioP2;P2;SDS_P1;SDS_P2;PMS_P1;PMS_P2;Temp;Humidity;BMP_temperature;BMP_pressure;BME280_temperature;BME280_humidity;BME280_pressure;Samples;Min_cycle;Max_cycle;Signal;HPM_P1;HPM_P2
2023/03/19 00:01:06;;;;;;;;;1.00;1.00;;;;;14.56;67.24;100830.78;5055993;28;45427;-76
2023/03/19 00:03:33;;;;;;;;;1.00;1.00;;;;;14.57;67.27;100833.41;5055879;28;45604;-76
2023/03/19 00:05:58;;;;;;;;;1.50;1.50;;;;;14.61;67.23;100842.19;5037977;28;47331;-77
2023/03/19 00:08:24;;;;;;;;;2.00;2.00;;;;;14.55;67.05;100832.63;5056134;28;45298;-77
2023/03/19 00:10:50;;;;;;;;;1.50;1.00;;;;;14.43;67.41;100836.09;5037962;28;45470;-77
2023/03/19 00:13:16;;;;;;;;;2.75;2.75;;;;;14.49;67.24;100833.00;5055832;28;45359;-77
2023/03/19 00:15:41;;;;;;;;;1.00;1.00;;;;;14.47;67.02;100831.34;5055970;28;46296;-77
2023/03/19 00:18:07;;;;;;;;;1.50;1.50;;;;;14.51;67.39;100844.56;5055597;28;45316;-78
2023/03/19 00:20:33;;;;;;;;;2.25;2.25;;;;;14.52;67.21;100835.53;5055900;28;45419;-77
2023/03/19 00:22:59;;;;;;;;;2.00;2.00;;;;;14.42;67.20;100828.94;5053596;28;45600;-77
2023/03/19 00:25:26;;;;;;;;;5.25;2.00;;;;;14.50;66.98;100850.94;5054921;28;46093;-76
2023/03/19 00:27:53;;;;;;;;;1.00;1.00;;;;;14.33;67.51;100851.03;5036969;28;45402;-78
2023/03/19 05:31:51;;;;;;;;;13.50;10.25;;;;;12.69;75.40;100949.06;5063467;27;45465;-78
2023/03/19 05:34:16;;;;;;;;;14.50;9.00;;;;;12.62;75.97;100959.28;5068137;28;45320;-78
2023/03/19 05:36:43;;;;;;;;;10.25;9.50;;;;;12.55;76.21;100947.09;5055094;28;45414;-77
2023/03/19 05:39:08;;;;;;;;;10.50;10.50;;;;;12.69;76.13;100973.28;5054586;28;45496;-77
2023/03/19 05:41:34;;;;;;;;;8.75;8.75;;;;;12.68;76.05;100961.66;5054643;28;46142;-78
2023/03/19 05:43:59;;;;;;;;;9.75;9.75;;;;;12.76;75.45;100964.81;5054655;28;45367;-78
2023/03/19 05:46:25;;;;;;;;;9.00;9.00;;;;;12.77;75.22;100974.63;5054892;28;45297;-79
2023/03/19 05:48:50;;;;;;;;;10.75;10.00;;;;;12.83;75.01;100976.16;5035269;28;45903;-77
2023/03/19 05:51:16;;;;;;;;;11.25;9.00;;;;;12.87;74.94;100973.22;5054751;28;46325;-77
2023/03/19 05:53:41;;;;;;;;;12.25;12.25;;;;;12.86;75.06;100982.22;5054517;28;45467;-79
2023/03/19 05:56:07;;;;;;;;;13.50;12.25;;;;;12.90;75.17;100988.34;5062971;28;45265;-77
2023/03/19 05:58:32;;;;;;;;;9.25;7.50;;;;;12.82;75.04;100964.53;5037808;28;45512;-78
2023/03/19 06:00:58;;;;;;;;;18.00;12.75;;;;;12.93;74.85;100980.09;5054172;28;46127;-78
2023/03/19 06:03:25;;;;;;;;;8.00;8.00;;;;;12.70;75.01;100954.38;5054053;28;45489;-77
2023/03/19 06:05:51;;;;;;;;;12.00;11.00;;;;;12.85;74.81;100971.53;5053818;28;45477;-78
2023/03/19 06:08:17;;;;;;;;;8.50;8.50;;;;;12.79;74.38;100950.34;5054127;28;45430;-78
2023/03/19 06:10:43;;;;;;;;;10.75;10.75;;;;;13.07;74.19;100990.16;5054435;28;46052;-78
2023/03/19 06:13:08;;;;;;;;;12.00;10.00;;;;;13.09;73.95;100993.66;5053529;28;45500;-79
2023/03/19 06:15:33;;;;;;;;;11.50;11.50;;;;;13.14;73.59;101005.94;5054313;28;45628;-78
2023/03/19 06:17:59;;;;;;;;;11.00;9.25;;;;;13.10;73.87;100996.22;5054214;28;45505;-78
2023/03/19 06:20:24;;;;;;;;;15.75;13.25;;;;;13.10;73.65;100992.69;5035367;28;46030;-78
2023/03/19 06:22:50;;;;;;;;;11.00;9.25;;;;;12.98;73.84;100974.47;5054175;28;45723;-78
2023/03/19 06:25:16;;;;;;;;;12.50;12.50;;;;;13.06;73.63;100991.97;5040757;28;45588;-77
2023/03/19 06:27:41;;;;;;;;;12.75;12.50;;;;;13.10;74.09;101012.38;5073744;28;45540;-76
2023/03/19 06:30:08;;;;;;;;;10.75;10.75;;;;;13.05;73.63;101010.88;5073648;28;45464;-78
2023/03/19 06:32:34;;;;;;;;;7.75;7.75;;;;;12.96;73.89;101005.97;5073881;28;45526;-77
2023/03/19 06:34:59;;;;;;;;;12.75;12.00;;;;;13.01;74.32;101025.47;5067131;28;45172;-77
2023/03/19 06:37:25;;;;;;;;;10.75;9.75;;;;;13.03;73.95;101024.41;5055316;28;45621;-77
2023/03/19 06:39:53;;;;;;;;;11.00;8.75;;;;;13.03;74.12;101031.63;5037675;28;47576;-78
2023/03/19 06:42:19;;;;;;;;;10.50;10.50;;;;;13.06;74.15;101026.09;5056700;28;45423;-77
2023/03/19 06:44:44;;;;;;;;;12.00;9.75;;;;;13.03;74.22;101012.78;5055569;28;45373;-77
2023/03/19 06:47:10;;;;;;;;;10.00;10.00;;;;;13.01;74.57;101028.16;5054213;28;45394;-78
2023/03/19 06:49:36;;;;;;;;;11.25;11.25;;;;;13.07;74.37;101034.09;5055574;28;46091;-77
2023/03/19 06:52:02;;;;;;;;;12.50;8.00;;;;;12.95;74.74;101025.75;5055425;28;45474;-78
2023/03/19 06:54:27;;;;;;;;;12.25;12.00;;;;;13.02;74.92;101038.81;5054202;28;45366;-77
2023/03/19 06:56:52;;;;;;;;;9.00;9.00;;;;;13.02;74.66;101036.13;5053328;28;45272;-76
2023/03/19 06:59:18;;;;;;;;;13.50;11.00;;;;;13.18;74.06;101044.34;5053447;28;46625;-76
2023/03/19 07:01:43;;;;;;;;;8.50;8.50;;;;;13.26;74.30;101050.19;5021260;28;45250;-76
2023/03/19 07:04:09;;;;;;;;;12.50;11.75;;;;;13.16;74.30;101032.78;5057188;28;45350;-76
2023/03/19 07:06:35;;;;;;;;;14.00;12.50;;;;;13.23;74.11;101031.50;5039077;28;46464;-79
2023/03/19 07:09:00;;;;;;;;;9.50;9.50;;;;;13.28;73.88;101042.88;5057165;28;46515;-78
2023/03/19 07:11:26;;;;;;;;;11.00;10.75;;;;;13.21;73.84;101033.41;5057113;28;45401;-76
2023/03/19 07:13:51;;;;;;;;;9.50;9.50;;;;;13.25;74.17;101026.91;5056761;28;45510;-77
2023/03/19 07:16:16;;;;;;;;;12.00;12.00;;;;;13.32;73.42;101036.41;5056719;28;45317;-76
2023/03/19 07:18:42;;;;;;;;;15.00;11.00;;;;;13.33;73.50;101037.28;5056873;28;45337;-77
2023/03/19 07:21:07;;;;;;;;;12.25;10.25;;;;;13.24;73.64;101042.19;5059191;28;45352;-76
2023/03/19 07:23:32;;;;;;;;;13.25;12.00;;;;;13.38;73.24;101048.66;5066047;28;45386;-77
2023/03/19 07:25:58;;;;;;;;;9.75;9.75;;;;;13.41;72.66;101052.09;5058069;28;45434;-77
2023/03/19 07:28:23;;;;;;;;;8.50;8.50;;;;;13.37;72.32;101050.50;5056804;28;46353;-78
2023/03/19 07:30:52;;;;;;;;;10.25;8.25;;;;;13.30;72.06;101022.16;5065834;28;45447;-78
2023/03/19 07:33:17;;;;;;;;;10.50;9.00;;;;;13.43;71.96;101049.31;5064380;28;45371;-77
2023/03/19 07:35:43;;;;;;;;;7.50;7.50;;;;;13.51;71.28;101053.34;5062294;28;45346;-77
2023/03/19 07:38:08;;;;;;;;;9.00;9.00;;;;;13.53;71.26;101047.84;5056783;28;46378;-79
2023/03/19 07:40:33;;;;;;;;;7.00;7.00;;;;;13.55;71.04;101041.44;5056323;28;45281;-78
2023/03/19 07:42:59;;;;;;;;;10.50;9.00;;;;;13.59;70.50;101037.66;5056636;28;45345;-77
2023/03/19 07:45:24;;;;;;;;;10.25;7.00;;;;;13.54;71.00;101046.91;5056941;28;45328;-77
2023/03/19 07:47:50;;;;;;;;;7.00;6.00;;;;;13.43;70.94;101035.84;5058181;28;45852;-77
2023/03/19 07:50:16;;;;;;;;;7.00;7.00;;;;;13.60;71.19;101047.47;5038096;28;45602;-78
2023/03/19 07:52:45;;;;;;;;;7.00;7.00;;;;;13.48;71.24;101050.81;5056685;28;45372;-76
2023/03/19 07:55:10;;;;;;;;;5.00;5.00;;;;;13.59;70.98;101055.63;5013946;28;46366;-76
2023/03/19 07:57:35;;;;;;;;;9.00;9.00;;;;;13.62;69.96;101050.06;5058053;28;45976;-75
2023/03/19 08:00:01;;;;;;;;;10.00;8.25;;;;;13.69;69.93;101050.63;5056474;28;45302;-75
2023/03/19 08:02:26;;;;;;;;;9.75;6.75;;;;;13.64;69.78;101048.16;5056581;28;45390;-75
2023/03/19 08:04:51;;;;;;;;;7.00;7.00;;;;;13.64;70.10;101058.94;5056182;28;45654;-75
2023/03/19 08:07:17;;;;;;;;;9.25;7.00;;;;;13.62;70.02;101047.38;5056335;28;45932;-79
2023/03/19 08:09:43;;;;;;;;;6.00;6.00;;;;;13.81;70.15;101056.22;5038104;28;45161;-77
2023/03/19 08:12:08;;;;;;;;;5.00;5.00;;;;;13.90;68.96;101063.78;5055734;28;45452;-78
2023/03/19 08:14:34;;;;;;;;;7.00;5.00;;;;;13.80;68.93;101043.69;5056191;28;45450;-78
2023/03/19 08:17:00;;;;;;;;;7.50;6.50;;;;;13.91;68.46;101062.84;5056003;28;45440;-78
2023/03/19 08:19:25;;;;;;;;;7.00;7.00;;;;;13.82;68.11;101063.34;5056026;28;45316;-77
2023/03/19 08:21:50;;;;;;;;;6.75;6.00;;;;;13.84;67.94;101074.91;5056026;28;45373;-77
2023/03/19 08:24:17;;;;;;;;;8.00;6.75;;;;;13.92;67.49;101061.03;5056044;28;45462;-79
2023/03/19 08:26:43;;;;;;;;;5.50;5.50;;;;;13.80;67.54;101061.66;5055893;28;46511;-77
2023/03/19 08:29:08;;;;;;;;;4.50;4.50;;;;;13.79;67.92;101050.03;5056043;28;45367;-77
2023/03/19 08:31:34;;;;;;;;;5.75;4.25;;;;;13.83;66.77;101057.00;5055670;28;45253;-78
2023/03/19 08:34:01;;;;;;;;;3.25;3.25;;;;;13.73;66.64;101074.63;5050916;28;46606;-79
2023/03/19 08:36:27;;;;;;;;;4.00;4.00;;;;;13.73;67.12;101074.63;5055892;28;46308;-80
2023/03/19 08:38:53;;;;;;;;;5.75;5.00;;;;;13.79;66.90;101079.66;5038238;28;46248;-77
2023/03/19 08:41:20;;;;;;;;;5.00;5.00;;;;;13.78;66.58;101085.16;5056137;28;45343;-79
2023/03/19 08:43:45;;;;;;;;;4.25;3.00;;;;;13.67;67.50;101087.53;5056757;28;45411;-78
2023/03/19 08:46:11;;;;;;;;;5.00;5.00;;;;;13.75;67.68;101106.88;5055762;28;45621;-78
2023/03/19 08:48:36;;;;;;;;;5.00;5.00;;;;;13.77;67.67;101111.22;5055872;28;45413;-77
2023/03/19 08:51:05;;;;;;;;;8.50;5.00;;;;;13.77;67.31;101116.63;5056704;28;45410;-76
2023/03/19 08:53:31;;;;;;;;;5.50;5.50;;;;;13.77;66.52;101130.09;5055434;28;45534;-78
2023/03/19 08:55:59;;;;;;;;;4.75;3.00;;;;;13.68;66.77;101127.00;5064181;28;46642;-78
2023/03/19 08:58:26;;;;;;;;;7.75;5.50;;;;;13.61;65.83;101123.75;5057458;28;45566;-81
2023/03/19 09:00:52;;;;;;;;;3.00;3.00;;;;;13.51;66.37;101135.97;5056503;28;45382;-77
2023/03/19 09:03:19;;;;;;;;;4.00;4.00;;;;;13.40;66.80;101139.22;5037868;28;45459;-78
2023/03/19 09:05:45;;;;;;;;;5.00;4.00;;;;;13.29;67.26;101146.09;5055394;28;46149;-78
2023/03/19 09:08:10;;;;;;;;;5.00;5.00;;;;;13.10;67.07;101132.66;5055755;28;45461;-77
2023/03/19 09:10:36;;;;;;;;;7.50;4.25;;;;;13.07;67.54;101144.44;5055936;28;45394;-77
2023/03/19 09:13:02;;;;;;;;;4.00;4.00;;;;;13.10;67.82;101152.34;5055394;28;45403;-74
2023/03/19 09:15:27;;;;;;;;;3.50;3.50;;;;;13.12;67.58;101157.66;5055334;28;46166;-78
2023/03/19 09:17:53;;;;;;;;;3.75;2.00;;;;;13.08;68.12;101156.97;5056704;28;45331;-74
2023/03/19 09:20:18;;;;;;;;;2.75;2.75;;;;;13.04;67.92;101146.41;5055107;28;45387;-78
2023/03/19 09:22:44;;;;;;;;;2.75;2.75;;;;;13.15;68.46;101155.75;5065553;28;45362;-75
2023/03/19 09:25:09;;;;;;;;;3.00;3.00;;;;;13.21;68.26;101157.25;5075303;28;45567;-76
2023/03/19 09:27:35;;;;;;;;;4.75;4.00;;;;;13.31;68.28;101153.16;5061151;28;45271;-75
2023/03/19 09:30:00;;;;;;;;;3.00;3.00;;;;;13.33;67.52;101153.94;5062302;28;45461;-76
2023/03/19 09:32:25;;;;;;;;;2.50;1.00;;;;;13.31;67.65;101139.69;5074630;28;45861;-77
2023/03/19 09:34:51;;;;;;;;;2.25;2.00;;;;;13.47;67.25;101159.50;5067532;28;46294;-72
2023/03/19 09:37:16;;;;;;;;;4.00;3.00;;;;;13.43;67.17;101157.06;5055008;28;45400;-77
2023/03/19 09:39:42;;;;;;;;;3.00;3.00;;;;;13.38;67.05;101141.09;5056697;28;45316;-74
2023/03/19 09:42:43;;;;;;;;;5.25;5.25;;;;;13.63;66.99;101173.91;5054958;28;45439;-75
2023/03/19 09:45:15;;;;;;;;;6.00;4.75;;;;;13.68;66.96;101162.91;5054609;28;45296;-77
2023/03/19 09:47:42;;;;;;;;;4.25;4.25;;;;;13.70;66.54;101160.97;5054540;28;45332;-75
2023/03/19 09:50:22;;;;;;;;;5.75;3.75;;;;;13.78;66.54;101166.00;5036371;28;45419;-74
2023/03/19 09:53:26;;;;;;;;;4.50;4.50;;;;;13.83;66.27;101167.50;5063162;28;45469;-75
2023/03/19 09:55:52;;;;;;;;;3.50;2.00;;;;;13.74;65.27;101159.00;5024708;28;46469;-77
2023/03/19 09:58:22;;;;;;;;;3.00;3.00;;;;;13.74;65.49;101173.38;5070139;28;45452;-77
2023/03/19 10:00:52;;;;;;;;;2.00;2.00;;;;;13.73;66.09;101174.31;5074759;28;45296;-75
2023/03/19 10:03:26;;;;;;;;;2.00;2.00;;;;;13.78;66.37;101179.47;5056899;28;45280;-74
2023/03/19 10:06:02;;;;;;;;;2.00;2.00;;;;;13.82;66.76;101183.75;5076205;28;45324;-80
2023/03/19 10:08:45;;;;;;;;;3.00;3.00;;;;;13.79;66.86;101173.09;5072679;28;45429;-76
2023/03/19 10:11:28;;;;;;;;;2.75;2.75;;;;;13.77;68.14;101180.44;5062757;28;45627;-74
2023/03/19 10:14:31;;;;;;;;;1.50;1.50;;;;;13.84;67.71;101179.16;5044788;28;46234;-74
2023/03/19 10:17:01;;;;;;;;;2.00;2.00;;;;;13.87;68.94;101177.16;5064762;28;46216;-77
2023/03/19 10:19:50;;;;;;;;;1.50;1.50;;;;;14.03;68.97;101209.59;5073751;28;45476;-78
2023/03/19 10:22:22;;;;;;;;;2.00;2.00;;;;;13.79;70.06;101209.00;5048857;28;45515;-75
2023/03/19 10:24:50;;;;;;;;;3.00;3.00;;;;;13.61;68.81;101207.25;5058519;28;45358;-74
2023/03/19 10:27:20;;;;;;;;;4.00;4.00;;;;;13.44;70.51;101216.19;5058923;28;46300;-75
2023/03/19 10:29:47;;;;;;;;;4.25;2.75;;;;;13.34;71.87;101208.69;5060238;28;45269;-75
2023/03/19 10:32:39;;;;;;;;;4.00;2.00;;;;;13.32;71.25;101221.34;5061796;28;45393;-76
2023/03/19 10:35:16;;;;;;;;;3.25;3.25;;;;;13.37;71.73;101216.59;5054209;28;45600;-77
2023/03/19 10:37:42;;;;;;;;;2.50;2.50;;;;;13.34;72.26;101214.94;5057787;28;45505;-75
2023/03/19 10:40:19;;;;;;;;;5.00;3.50;;;;;13.41;71.46;101213.69;5057387;28;45479;-77
2023/03/19 10:43:06;;;;;;;;;4.00;4.00;;;;;13.37;71.35;101208.50;5056876;28;45481;-75
2023/03/19 10:45:36;;;;;;;;;4.50;3.00;;;;;13.48;71.17;101225.00;5057329;28;45324;-73
2023/03/19 10:48:04;;;;;;;;;6.50;6.50;;;;;13.54;70.53;101230.09;5057473;28;46413;-75
2023/03/19 10:50:29;;;;;;;;;8.00;5.00;;;;;13.62;72.05;101225.19;5057081;28;45331;-75
2023/03/19 10:53:34;;;;;;;;;5.50;5.50;;;;;13.64;71.47;101223.28;5057652;28;45314;-76
2023/03/19 10:56:04;;;;;;;;;9.00;9.00;;;;;13.74;70.98;101229.06;5057134;28;45338;-74
2023/03/19 10:58:32;;;;;;;;;7.75;7.75;;;;;13.70;70.30;101208.63;5058740;28;45411;-74
2023/03/19 11:01:04;;;;;;;;;12.50;8.25;;;;;13.81;70.43;101225.97;5057451;28;45469;-77
2023/03/19 11:03:36;;;;;;;;;8.00;8.00;;;;;13.94;69.83;101221.72;5057668;28;45342;-77
2023/03/19 11:06:32;;;;;;;;;8.50;8.50;;;;;14.02;69.00;101226.72;5057497;28;45171;-77
2023/03/19 11:09:06;;;;;;;;;11.50;10.00;;;;;14.13;67.99;101228.81;5057322;28;45311;-75
2023/03/19 11:11:44;;;;;;;;;15.75;13.50;;;;;14.13;68.74;101234.22;5057335;28;45277;-79
2023/03/19 11:14:16;;;;;;;;;3.00;3.00;;;;;14.06;66.92;101238.19;5057456;28;45438;-78
2023/03/19 11:17:02;;;;;;;;;5.00;4.00;;;;;13.98;64.99;101236.75;5057163;28;45389;-73
2023/03/19 11:19:29;;;;;;;;;1.75;1.00;;;;;13.93;63.34;101252.31;5056602;28;47549;-77
2023/03/19 11:22:16;;;;;;;;;1.00;1.00;;;;;13.89;63.30;101247.16;5057006;28;45289;-74
2023/03/19 11:24:49;;;;;;;;;2.50;1.50;;;;;13.71;62.73;101242.69;5056620;28;45407;-74
2023/03/19 11:27:15;;;;;;;;;1.75;1.75;;;;;13.62;63.54;101252.13;5056625;28;45474;-72
2023/03/19 11:29:42;;;;;;;;;1.50;1.50;;;;;13.61;63.21;101242.28;5059651;28;45563;-77
2023/03/19 11:32:32;;;;;;;;;1.00;1.00;;;;;13.56;63.41;101229.06;5063863;28;45274;-78
2023/03/19 11:35:08;;;;;;;;;2.00;2.00;;;;;13.76;62.25;101240.66;5056474;28;45343;-78
2023/03/19 11:37:39;;;;;;;;;2.00;2.00;;;;;13.88;63.45;101242.69;5062998;28;45344;-79
2023/03/19 11:40:19;;;;;;;;;1.50;1.50;;;;;13.94;61.13;101237.03;5037132;28;47681;-78
2023/03/19 11:43:19;;;;;;;;;4.75;2.00;;;;;13.97;61.37;101247.63;5063947;28;45534;-76
2023/03/19 11:46:06;;;;;;;;;1.00;1.00;;;;;13.89;60.25;101248.03;5073535;28;45464;-80
2023/03/19 11:49:04;;;;;;;;;1.00;1.00;;;;;13.85;60.28;101234.78;5076079;28;45458;-76
2023/03/19 11:51:50;;;;;;;;;1.00;1.00;;;;;13.77;59.08;101250.50;5077575;28;46107;-74
2023/03/19 11:54:57;;;;;;;;;1.00;1.00;;;;;13.75;59.52;101255.06;5058890;28;45946;-73
2023/03/19 11:58:07;;;;;;;;;1.25;1.25;;;;;13.65;60.06;101265.44;4974377;28;45497;-72
2023/03/19 12:00:45;;;;;;;;;2.00;2.00;;;;;13.56;60.83;101261.38;5070016;28;45421;-74
2023/03/19 12:03:49;;;;;;;;;2.75;2.75;;;;;13.55;61.35;101266.84;5077271;28;46946;-76
2023/03/19 12:06:35;;;;;;;;;4.00;1.50;;;;;13.61;61.30;101258.44;5031562;28;45503;-75
2023/03/19 12:09:38;;;;;;;;;2.00;2.00;;;;;13.61;60.18;101269.22;5059357;28;45554;-74
2023/03/19 12:12:31;;;;;;;;;1.75;1.75;;;;;13.66;60.65;101261.81;5078150;28;45307;-75
2023/03/19 12:15:23;;;;;;;;;0.50;0.50;;;;;13.73;58.87;101256.97;5077690;28;46296;-75
2023/03/19 12:17:58;;;;;;;;;2.50;2.50;;;;;13.83;59.07;101259.13;5058006;28;45447;-74
2023/03/19 12:20:26;;;;;;;;;2.00;2.00;;;;;13.94;58.48;101270.25;5055433;28;45532;-74
2023/03/19 12:23:16;;;;;;;;;1.00;1.00;;;;;14.10;57.50;101267.63;5055484;28;45499;-72
2023/03/19 12:26:03;;;;;;;;;1.00;1.00;;;;;14.30;56.15;101263.84;5067105;28;46241;-71
2023/03/19 12:28:34;;;;;;;;;3.00;2.00;;;;;14.50;56.55;101265.53;5066417;28;45505;-74
2023/03/19 12:31:11;;;;;;;;;3.00;1.00;;;;;14.64;54.93;101266.53;5072183;28;45394;-75
2023/03/19 12:34:03;;;;;;;;;1.00;1.00;;;;;14.62;54.75;101256.78;5075209;28;45629;-73
2023/03/19 12:36:35;;;;;;;;;1.50;0.75;;;;;14.75;54.36;101218.22;5076450;28;45238;-74
2023/03/19 12:39:06;;;;;;;;;2.00;2.00;;;;;15.67;52.41;101248.97;5075929;28;45348;-74
2023/03/19 12:41:35;;;;;;;;;1.00;1.00;;;;;16.34;50.52;101244.00;5067282;28;45634;-72
2023/03/19 12:44:23;;;;;;;;;1.00;1.00;;;;;16.77;49.06;101247.63;5062385;28;45415;-74
2023/03/19 12:47:09;;;;;;;;;0.00;0.00;;;;;16.88;47.73;101247.84;5074563;28;46197;-75
2023/03/19 12:49:47;;;;;;;;;1.00;1.00;;;;;16.78;48.88;101246.69;5074424;28;45401;-75
2023/03/19 12:52:24;;;;;;;;;3.25;1.25;;;;;16.47;48.05;101262.13;5074934;28;45389;-75
2023/03/19 12:54:58;;;;;;;;;3.75;1.00;;;;;16.16;48.58;101255.00;5068953;28;45451;-75
2023/03/19 12:57:57;;;;;;;;;2.00;2.00;;;;;16.02;49.38;101265.78;5072223;28;46293;-75
2023/03/19 13:00:34;;;;;;;;;2.00;2.00;;;;;15.91;49.91;101262.84;5075244;28;45412;-74
2023/03/19 13:02:59;;;;;;;;;1.00;1.00;;;;;15.80;50.05;101262.66;5076003;28;45149;-75
2023/03/19 13:05:30;;;;;;;;;1.25;1.25;;;;;15.68;50.02;101268.75;5057157;28;45286;-74
2023/03/19 13:08:33;;;;;;;;;1.75;1.75;;;;;15.60;51.25;101260.22;5075701;28;46334;-76
2023/03/19 13:11:02;;;;;;;;;2.00;1.00;;;;;15.51;49.78;101254.38;5075680;28;45510;-74
2023/03/19 13:13:39;;;;;;;;;1.50;1.50;;;;;15.51;48.59;101264.31;5075560;28;45493;-73
2023/03/19 13:16:09;;;;;;;;;2.00;2.00;;;;;15.38;49.37;101266.00;5075320;28;45625;-75
2023/03/19 13:18:53;;;;;;;;;2.00;2.00;;;;;15.13;49.12;101266.53;5056982;28;46718;-74
2023/03/19 13:21:32;;;;;;;;;2.00;2.00;;;;;15.07;51.07;101261.44;5057248;28;45535;-77
2023/03/19 13:24:04;;;;;;;;;1.00;1.00;;;;;15.11;50.11;101271.13;5075637;28;45418;-74
2023/03/19 13:26:30;;;;;;;;;1.00;1.00;;;;;15.12;50.09;101280.97;5075158;28;45249;-76
2023/03/19 13:29:14;;;;;;;;;1.50;1.50;;;;;15.16;50.36;101282.53;5075369;28;45318;-75
2023/03/19 13:31:40;;;;;;;;;3.00;1.25;;;;;15.04;48.09;101278.72;5074967;28;45517;-73
2023/03/19 13:34:31;;;;;;;;;3.00;1.25;;;;;14.95;48.26;101295.41;5074221;28;45319;-76
2023/03/19 13:37:19;;;;;;;;;0.25;0.25;;;;;14.83;48.40;101292.50;5055243;28;45794;-75
2023/03/19 13:39:47;;;;;;;;;1.00;1.00;;;;;14.66;48.09;101288.91;5062690;28;46348;-75
2023/03/19 13:42:36;;;;;;;;;2.50;2.00;;;;;14.49;48.90;101302.44;5075274;28;45276;-74
2023/03/19 13:45:29;;;;;;;;;1.25;1.25;;;;;14.50;48.67;101298.78;5075271;28;45472;-74
2023/03/19 13:47:58;;;;;;;;;1.00;1.00;;;;;14.55;48.18;101302.09;5075335;28;45247;-75
2023/03/19 13:50:29;;;;;;;;;2.75;1.00;;;;;14.50;47.52;101306.88;5074935;28;45400;-75
2023/03/19 13:53:17;;;;;;;;;0.00;0.00;;;;;14.48;47.67;101303.38;5075144;28;45411;-75
2023/03/19 13:56:01;;;;;;;;;1.00;1.00;;;;;14.46;48.10;101323.31;5045085;28;45508;-74
2023/03/19 14:01:25;;;;;;;;;2.25;1.00;;;;;14.48;48.55;101333.06;5036920;28;47038;-74
2023/03/19 14:03:57;;;;;;;;;1.00;1.00;;;;;14.29;48.68;101316.91;5054590;28;45315;-76
2023/03/19 14:06:39;;;;;;;;;2.00;0.00;;;;;14.13;48.59;101325.88;5054883;28;45363;-75
2023/03/19 14:09:27;;;;;;;;;0.75;0.75;;;;;14.08;49.07;101327.97;5063050;28;45364;-75
2023/03/19 14:11:53;;;;;;;;;0.50;0.50;;;;;14.02;48.88;101324.63;5074243;28;46272;-75
2023/03/19 14:14:22;;;;;;;;;1.00;1.00;;;;;14.10;49.13;101332.31;5075165;28;45460;-74
2023/03/19 14:16:51;;;;;;;;;1.00;1.00;;;;;14.01;49.06;101322.00;5074575;28;45368;-76
2023/03/19 14:19:19;;;;;;;;;0.00;0.00;;;;;14.08;49.13;101333.34;5074615;28;45611;-73
2023/03/19 14:22:07;;;;;;;;;0.25;0.25;;;;;14.05;49.31;101323.59;5074458;28;45360;-76
2023/03/19 14:24:40;;;;;;;;;1.00;1.00;;;;;14.17;48.75;101333.75;5056339;28;45360;-73
2023/03/19 14:27:31;;;;;;;;;0.75;0.75;;;;;14.21;48.80;101339.84;5074784;28;45337;-75
2023/03/19 14:30:00;;;;;;;;;0.50;0.50;;;;;14.29;49.16;101322.31;5074431;28;45428;-76
2023/03/19 14:32:35;;;;;;;;;0.00;0.00;;;;;14.39;48.85;101333.53;5074106;28;45585;-75
2023/03/19 14:35:05;;;;;;;;;0.00;0.00;;;;;14.33;47.84;101326.63;5066632;28;45457;-75
2023/03/19 14:37:40;;;;;;;;;0.00;0.00;;;;;14.37;48.14;101322.78;5054691;28;45472;-74
2023/03/19 14:40:17;;;;;;;;;0.00;0.00;;;;;14.26;47.53;101294.66;5054775;28;45348;-77
2023/03/19 14:42:45;;;;;;;;;0.00;0.00;;;;;14.51;47.45;101332.91;5054175;28;45523;-74
2023/03/19 14:45:41;;;;;;;;;0.00;0.00;;;;;14.56;45.55;101325.44;5054283;28;45375;-76
2023/03/19 14:48:37;;;;;;;;;0.00;0.00;;;;;14.62;45.47;101341.31;5054705;28;45568;-76
2023/03/19 14:51:25;;;;;;;;;1.00;1.00;;;;;14.58;45.97;101328.03;5054415;28;45292;-76
2023/03/19 14:54:12;;;;;;;;;1.00;0.00;;;;;14.73;46.09;101343.41;5035722;28;48516;-77
2023/03/19 14:56:57;;;;;;;;;1.00;1.00;;;;;14.76;46.11;101338.75;5055186;28;45325;-75
2023/03/19 14:59:23;;;;;;;;;1.00;1.00;;;;;14.69;45.46;101336.44;5054171;28;45472;-76
2023/03/19 15:01:53;;;;;;;;;0.00;0.00;;;;;14.73;45.33;101347.00;5053771;28;45450;-79
2023/03/19 15:04:23;;;;;;;;;1.00;1.00;;;;;14.79;45.12;101350.34;5054047;28;45778;-77
2023/03/19 15:07:10;;;;;;;;;1.00;1.00;;;;;14.70;45.35;101341.78;5053980;28;45336;-78
2023/03/19 15:09:36;;;;;;;;;1.00;1.00;;;;;14.85;46.35;101344.59;5054088;28;45514;-76
2023/03/19 15:12:30;;;;;;;;;2.00;2.00;;;;;14.83;45.06;101314.09;5053718;28;45332;-76
2023/03/19 15:15:40;;;;;;;;;1.00;1.00;;;;;15.05;44.82;101344.41;5053403;28;45453;-76
2023/03/19 15:18:24;;;;;;;;;1.00;1.00;;;;;15.14;44.27;101342.03;5022227;28;45998;-73
2023/03/19 15:20:53;;;;;;;;;1.25;0.50;;;;;15.69;44.57;101338.09;5053986;28;45533;-74
2023/03/19 15:23:55;;;;;;;;;2.00;1.00;;;;;16.32;43.71;101344.25;5056975;28;45386;-79
2023/03/19 15:26:33;;;;;;;;;1.00;1.00;;;;;16.90;41.50;101338.00;5056710;28;46340;-72
2023/03/19 15:28:59;;;;;;;;;2.50;2.50;;;;;17.44;40.88;101325.44;5057209;28;45289;-75
2023/03/19 15:31:43;;;;;;;;;3.00;1.50;;;;;18.05;40.32;101325.00;5056103;28;45576;-76
2023/03/19 15:34:25;;;;;;;;;4.00;1.00;;;;;18.56;38.41;101337.78;5070491;28;45504;-74
2023/03/19 15:37:14;;;;;;;;;2.00;2.00;;;;;18.71;38.14;101336.78;5059503;28;46226;-73
2023/03/19 15:39:46;;;;;;;;;1.00;1.00;;;;;18.49;39.28;101332.81;5056964;28;45339;-78
2023/03/19 15:42:15;;;;;;;;;1.00;1.00;;;;;18.32;39.39;101332.22;5056995;28;45355;-74
2023/03/19 15:44:50;;;;;;;;;1.50;0.50;;;;;18.17;39.22;101341.41;5057128;28;45952;-73
2023/03/19 15:47:20;;;;;;;;;1.00;1.00;;;;;17.75;39.15;101346.03;5056530;28;45411;-73
2023/03/19 15:49:55;;;;;;;;;1.00;1.00;;;;;17.27;40.00;101345.50;5056849;28;45229;-74
2023/03/19 15:52:22;;;;;;;;;1.25;1.25;;;;;17.03;41.54;101347.94;5074424;28;45438;-73
2023/03/19 15:54:48;;;;;;;;;2.00;1.00;;;;;16.78;41.39;101349.56;5052032;28;45580;-77
2023/03/19 15:57:16;;;;;;;;;3.00;1.00;;;;;16.57;40.33;101362.59;5056330;28;45545;-79
2023/03/19 15:59:43;;;;;;;;;0.00;0.00;;;;;16.19;40.25;101357.63;5053159;28;45568;-75
2023/03/19 16:02:37;;;;;;;;;0.75;0.75;;;;;15.89;39.96;101364.84;5049046;28;45506;-77
2023/03/19 16:05:03;;;;;;;;;0.00;0.00;;;;;15.63;40.06;101343.84;5055108;28;46783;-76
2023/03/19 16:07:42;;;;;;;;;0.00;0.00;;;;;16.00;40.59;101365.06;5058124;28;47273;-75
2023/03/19 16:10:38;;;;;;;;;0.50;0.50;;;;;16.55;39.32;101367.22;5076233;28;45500;-76
2023/03/19 16:13:22;;;;;;;;;0.25;0.00;;;;;17.15;38.99;101370.69;5076357;28;45505;-76
2023/03/19 16:15:55;;;;;;;;;2.75;0.00;;;;;17.72;37.73;101367.94;5076177;28;45458;-78
2023/03/19 16:18:25;;;;;;;;;0.00;0.00;;;;;18.38;38.42;101367.94;5075672;28;45529;-76
2023/03/19 16:21:01;;;;;;;;;0.25;0.25;;;;;18.82;35.59;101377.63;5076149;28;45431;-78
2023/03/19 16:23:35;;;;;;;;;1.75;1.75;;;;;19.42;36.39;101375.09;5075807;28;45362;-77
2023/03/19 16:26:18;;;;;;;;;2.00;1.00;;;;;19.74;34.04;101382.75;5057960;28;45494;-74
2023/03/19 16:29:14;;;;;;;;;0.00;0.00;;;;;20.15;34.32;101382.41;5075943;28;46068;-77
2023/03/19 16:31:43;;;;;;;;;0.00;0.00;;;;;20.31;32.31;101382.97;5061171;28;45743;-76
2023/03/19 16:34:29;;;;;;;;;0.00;0.00;;;;;20.36;31.80;101378.94;5055403;28;45213;-79
2023/03/19 16:36:55;;;;;;;;;0.75;0.75;;;;;20.44;31.15;101391.97;5056344;28;45492;-82
2023/03/19 16:39:32;;;;;;;;;1.25;0.00;;;;;20.47;32.61;101401.75;5057957;28;46120;-78
2023/03/19 16:42:07;;;;;;;;;1.00;1.00;;;;;20.19;32.14;101401.09;5074734;28;45623;-75
2023/03/19 16:44:33;;;;;;;;;1.00;1.00;;;;;19.89;31.67;101411.56;5076448;28;45425;-75
2023/03/19 16:46:58;;;;;;;;;0.00;0.00;;;;;19.56;32.59;101410.31;5075829;28;45413;-77
2023/03/19 16:49:24;;;;;;;;;1.00;1.00;;;;;19.36;33.11;101418.19;5076145;28;45389;-77
2023/03/19 16:51:49;;;;;;;;;0.00;0.00;;;;;19.23;32.59;101421.75;5075943;28;45418;-76
2023/03/19 16:54:16;;;;;;;;;0.00;0.00;;;;;19.11;33.00;101433.53;5074561;28;45465;-77
2023/03/19 16:56:41;;;;;;;;;0.75;0.75;;;;;18.99;33.22;101409.03;5055167;28;45360;-77